createdAt,value
2022-08-20T00:01:08.984Z,21.81
2022-08-20T00:06:06.348Z,21.80
2022-08-20T00:08:34.420Z,21.85
2022-08-20T00:11:05.270Z,21.87
2022-08-20T00:13:37.229Z,21.90
2022-08-20T00:16:06.289Z,21.93
2022-08-20T00:18:36.953Z,21.97
2022-08-20T00:21:08.443Z,21.97
2022-08-20T00:23:37.549Z,22.00
2022-08-20T00:26:07.492Z,22.07
2022-08-20T00:28:35.547Z,22.08
2022-08-20T00:31:05.313Z,22.08
2022-08-20T00:33:33.204Z,22.10
2022-08-20T00:40:59.760Z,22.17
2022-08-20T00:43:34.317Z,22.19
2022-08-20T00:46:06.197Z,22.20
2022-08-20T00:48:36.609Z,22.19
2022-08-20T00:53:37.475Z,22.19
2022-08-20T00:56:07.177Z,22.19
2022-08-20T00:58:37.983Z,22.18
2022-08-20T01:01:07.298Z,22.21
2022-08-20T01:03:35.673Z,22.21
2022-08-20T01:06:03.550Z,22.22
2022-08-20T01:08:31.450Z,22.24
2022-08-20T01:11:09.925Z,22.26
2022-08-20T01:13:40.367Z,22.27
2022-08-20T01:16:16.515Z,22.28
2022-08-20T01:18:48.299Z,22.29
2022-08-20T01:21:18.834Z,22.32
2022-08-20T01:24:00.670Z,22.34
2022-08-20T01:29:30.420Z,22.38
2022-08-20T01:32:01.521Z,22.39
2022-08-20T01:34:29.981Z,22.40
2022-08-20T01:36:59.280Z,22.42
2022-08-20T01:39:31.962Z,22.42
2022-08-20T01:42:08.558Z,22.42
2022-08-20T01:44:40.001Z,22.45
2022-08-20T01:49:44.061Z,22.44
2022-08-20T01:54:37.304Z,22.42
2022-08-20T01:57:08.254Z,22.42
2022-08-20T02:02:20.314Z,22.40
2022-08-20T02:04:48.427Z,22.42
2022-08-20T02:07:19.500Z,22.43
2022-08-20T02:09:47.804Z,22.42
2022-08-20T02:12:16.664Z,22.41
2022-08-20T02:14:46.169Z,22.42
2022-08-20T02:17:15.162Z,22.42
2022-08-20T02:19:48.280Z,22.40
2022-08-20T02:24:41.448Z,22.39
2022-08-20T02:27:09.420Z,22.37
2022-08-20T02:29:37.390Z,22.36
2022-08-20T02:32:32.581Z,22.35
2022-08-20T02:34:55.805Z,22.35
2022-08-20T02:37:23.603Z,22.33
2022-08-20T02:39:51.483Z,22.31
2022-08-20T02:42:19.754Z,22.32
2022-08-20T02:44:47.740Z,22.31
2022-08-20T02:47:17.271Z,22.31
2022-08-20T02:49:45.286Z,22.30
2022-08-20T02:52:14.635Z,22.28
2022-08-20T02:54:42.534Z,22.30
2022-08-20T02:57:14.137Z,22.29
2022-08-20T02:59:42.188Z,22.28
2022-08-20T03:02:10.081Z,22.30
2022-08-20T03:04:38.022Z,22.29
2022-08-20T03:07:07.317Z,22.28
2022-08-20T03:09:36.670Z,22.30
2022-08-20T03:12:04.939Z,22.31
2022-08-20T03:14:32.857Z,22.31
2022-08-20T03:17:00.838Z,22.29
2022-08-20T03:19:29.004Z,22.29
2022-08-20T03:21:57.307Z,22.29
2022-08-20T03:24:25.275Z,22.29
2022-08-20T03:26:54.644Z,22.28
2022-08-20T03:29:22.582Z,22.25
2022-08-20T03:31:50.492Z,22.25
2022-08-20T03:34:18.528Z,22.23
2022-08-20T03:36:46.454Z,22.25
2022-08-20T03:39:14.409Z,22.24
2022-08-20T03:41:42.341Z,22.24
2022-08-20T03:44:11.680Z,22.26
2022-08-20T03:46:40.274Z,22.26
2022-08-20T03:49:08.190Z,22.27
2022-08-20T03:51:51.478Z,22.31
2022-08-20T03:54:24.067Z,22.32
2022-08-20T03:59:23.568Z,22.32
2022-08-20T04:01:52.410Z,22.34
2022-08-20T04:04:20.741Z,22.33
2022-08-20T04:06:48.960Z,22.34
2022-08-20T04:09:17.234Z,22.34
2022-08-20T04:14:11.271Z,22.30
2022-08-20T04:16:41.472Z,22.31
2022-08-20T04:19:09.541Z,22.31
2022-08-20T04:21:38.160Z,22.32
2022-08-20T04:24:07.113Z,22.31
2022-08-20T04:29:00.391Z,22.27
2022-08-20T04:31:33.801Z,22.27
2022-08-20T04:34:04.531Z,22.25
2022-08-20T04:36:32.653Z,22.25
2022-08-20T04:39:00.552Z,22.26
2022-08-20T04:41:27.526Z,22.25
2022-08-20T04:43:57.317Z,22.26
2022-08-20T04:49:10.825Z,22.26
2022-08-20T04:51:39.053Z,22.23
2022-08-20T04:54:07.419Z,22.20
2022-08-20T04:56:38.965Z,22.18
2022-08-20T04:59:08.283Z,22.16
2022-08-20T05:01:36.731Z,22.14
2022-08-20T05:04:05.205Z,22.14
2022-08-20T05:06:34.603Z,22.13
2022-08-20T05:09:02.572Z,22.09
2022-08-20T05:11:36.011Z,22.10
2022-08-20T05:14:08.229Z,22.10
2022-08-20T05:16:39.220Z,22.09
2022-08-20T05:19:08.928Z,22.08
2022-08-20T05:21:38.655Z,22.12
2022-08-20T05:24:06.825Z,22.14
2022-08-20T05:29:17.709Z,22.13
2022-08-20T05:31:45.591Z,22.14
2022-08-20T05:34:13.847Z,22.13
2022-08-20T05:36:46.857Z,22.10
2022-08-20T05:39:16.941Z,22.08
2022-08-20T05:41:44.891Z,22.08
2022-08-20T05:44:15.208Z,22.09
2022-08-20T05:46:45.550Z,22.12
2022-08-20T05:49:16.440Z,22.12
2022-08-20T05:51:46.350Z,22.09
2022-08-20T05:54:15.388Z,22.11
2022-08-20T05:59:10.533Z,22.16
2022-08-20T06:01:40.100Z,22.22
2022-08-20T06:04:27.028Z,22.25
2022-08-20T06:06:58.616Z,22.26
2022-08-20T06:09:31.678Z,22.27
2022-08-20T06:12:01.772Z,22.30
2022-08-20T06:14:30.587Z,22.33
2022-08-20T06:17:04.727Z,22.33
2022-08-20T06:19:33.949Z,22.35
2022-08-20T06:30:02.780Z,22.38
2022-08-20T06:35:19.772Z,22.39
2022-08-20T06:54:18.125Z,22.58
2022-08-20T07:07:49.599Z,22.67
2022-08-20T07:10:18.759Z,22.70
2022-08-20T07:12:50.084Z,22.68
2022-08-20T07:50:58.969Z,23.18
2022-08-20T07:53:28.602Z,23.23
2022-08-20T07:55:59.590Z,23.26
2022-08-20T07:58:27.688Z,23.31
2022-08-20T08:01:01.657Z,23.33
2022-08-20T08:03:40.825Z,23.34
2022-08-20T08:06:29.046Z,23.31
2022-08-20T08:09:01.078Z,23.34
2022-08-20T08:11:29.735Z,23.36
2022-08-20T08:13:57.713Z,23.40
2022-08-20T08:16:25.618Z,23.42
2022-08-20T08:18:56.882Z,23.45
2022-08-20T08:21:26.345Z,23.51
2022-08-20T08:23:54.157Z,23.55
2022-08-20T08:26:22.373Z,23.60
2022-08-20T08:28:50.786Z,23.72
2022-08-20T08:31:18.593Z,23.84
2022-08-20T08:33:46.433Z,23.94
2022-08-20T08:36:16.299Z,24.04
2022-08-20T08:38:47.032Z,24.10
2022-08-20T08:41:20.567Z,24.19
2022-08-20T08:43:53.309Z,24.29
2022-08-20T08:46:27.534Z,24.39
2022-08-20T08:48:58.889Z,24.49
2022-08-20T08:51:33.943Z,24.63
2022-08-20T08:54:06.919Z,24.76
2022-08-20T08:56:36.108Z,24.97
2022-08-20T08:59:07.722Z,25.15
2022-08-20T09:04:31.772Z,25.69
2022-08-20T09:07:02.795Z,25.84
2022-08-20T09:09:36.869Z,26.12
2022-08-20T09:12:07.050Z,26.30
2022-08-20T09:14:35.046Z,26.41
2022-08-20T09:17:03.026Z,26.61
2022-08-20T09:19:31.897Z,26.93
2022-08-20T09:22:00.012Z,27.18
2022-08-20T09:24:27.866Z,27.47
2022-08-20T09:29:35.956Z,28.05
2022-08-20T09:32:08.471Z,28.14
2022-08-20T09:34:38.344Z,28.37
2022-08-20T09:37:06.162Z,28.40
2022-08-20T09:39:33.986Z,28.60
2022-08-20T09:42:09.315Z,28.63
2022-08-20T09:44:38.744Z,28.86
2022-08-20T09:47:07.157Z,28.97
2022-08-20T09:49:36.777Z,29.10
2022-08-20T09:52:07.874Z,29.05
2022-08-20T09:54:37.143Z,28.95
2022-08-20T09:57:08.553Z,28.70
2022-08-20T09:59:38.541Z,28.49
2022-08-20T10:02:06.609Z,28.24
2022-08-20T10:04:34.498Z,28.30
2022-08-20T10:07:02.286Z,28.22
2022-08-20T10:09:30.066Z,27.99
2022-08-20T10:11:57.840Z,27.98
2022-08-20T10:14:26.079Z,27.94
2022-08-20T10:16:59.888Z,27.87
2022-08-20T10:19:30.216Z,27.85
2022-08-20T10:21:59.591Z,28.00
2022-08-20T10:24:28.114Z,28.21
2022-08-20T10:26:58.680Z,28.29
2022-08-20T10:29:27.842Z,28.40
2022-08-20T10:31:57.942Z,28.47
2022-08-20T10:34:26.481Z,28.64
2022-08-20T10:36:54.327Z,28.95
2022-08-20T10:39:22.363Z,29.11
2022-08-20T10:41:50.155Z,29.33
2022-08-20T10:44:18.724Z,29.42
2022-08-20T10:46:48.048Z,29.52
2022-08-20T10:49:17.226Z,29.78
2022-08-20T10:51:45.111Z,29.85
2022-08-20T10:54:15.568Z,29.57
2022-08-20T10:56:43.822Z,29.86
2022-08-20T10:59:11.718Z,30.19
2022-08-20T11:01:39.741Z,30.14
2022-08-20T11:04:07.877Z,30.19
2022-08-20T11:06:37.122Z,30.10
2022-08-20T11:09:05.154Z,30.14
2022-08-20T11:11:37.567Z,30.06
2022-08-20T11:14:05.506Z,30.08
2022-08-20T11:16:33.418Z,30.08
2022-08-20T11:19:01.349Z,29.88
2022-08-20T11:21:29.200Z,29.68
2022-08-20T11:24:02.622Z,29.54
2022-08-20T11:26:30.967Z,29.50
2022-08-20T11:28:58.795Z,29.56
2022-08-20T11:31:27.082Z,29.75
2022-08-20T11:33:54.876Z,29.84
2022-08-20T11:36:26.361Z,30.11
2022-08-20T11:38:54.617Z,30.34
2022-08-20T11:41:23.756Z,30.66
2022-08-20T11:44:17.579Z,30.99
2022-08-20T11:46:39.644Z,31.23
2022-08-20T11:49:07.629Z,31.28
2022-08-20T11:51:48.991Z,31.53
2022-08-20T11:54:18.062Z,31.32
2022-08-20T11:56:47.662Z,31.42
2022-08-20T11:59:15.535Z,31.27
2022-08-20T12:02:01.916Z,31.05
2022-08-20T12:04:33.641Z,30.61
2022-08-20T12:07:09.525Z,30.48
2022-08-20T12:09:50.793Z,30.57
2022-08-20T12:12:23.344Z,30.69
2022-08-20T12:14:51.845Z,30.90
2022-08-20T12:17:23.904Z,31.09
2022-08-20T12:19:56.661Z,31.17
2022-08-20T12:22:25.595Z,31.30
2022-08-20T12:24:53.756Z,31.52
2022-08-20T12:27:24.690Z,31.78
2022-08-20T12:29:54.761Z,32.18
2022-08-20T12:32:23.724Z,32.41
2022-08-20T12:34:51.838Z,32.43
2022-08-20T12:37:21.457Z,32.55
2022-08-20T12:39:52.714Z,32.63
2022-08-20T12:42:22.744Z,32.69
2022-08-20T12:44:50.957Z,32.68
2022-08-20T12:47:29.244Z,32.83
2022-08-20T12:50:00.444Z,32.86
2022-08-20T12:55:14.425Z,33.08
2022-08-20T12:57:46.378Z,33.03
2022-08-20T13:00:16.610Z,33.06
2022-08-20T13:02:44.618Z,33.02
2022-08-20T13:05:14.378Z,33.09
2022-08-20T13:07:43.885Z,33.12
2022-08-20T13:10:14.556Z,33.30
2022-08-20T13:12:43.726Z,33.31
2022-08-20T13:15:12.414Z,33.48
2022-08-20T13:17:53.249Z,33.43
2022-08-20T13:20:21.222Z,33.42
2022-08-20T13:22:49.038Z,33.43
2022-08-20T13:25:21.346Z,33.51
2022-08-20T13:27:51.068Z,33.49
2022-08-20T13:30:20.961Z,33.46
2022-08-20T13:32:49.423Z,33.48
2022-08-20T13:35:17.868Z,33.52
2022-08-20T13:37:45.669Z,33.58
2022-08-20T13:40:13.972Z,33.65
2022-08-20T13:45:25.815Z,33.71
2022-08-20T13:47:56.123Z,33.86
2022-08-20T13:50:26.495Z,33.87
2022-08-20T13:52:54.566Z,33.84
2022-08-20T13:55:26.677Z,33.82
2022-08-20T13:57:56.759Z,33.89
2022-08-20T14:00:31.665Z,33.93
2022-08-20T14:03:00.292Z,33.77
2022-08-20T14:05:28.302Z,33.66
2022-08-20T14:07:56.244Z,33.70
2022-08-20T14:10:31.282Z,33.70
2022-08-20T14:15:43.636Z,33.41
2022-08-20T14:18:11.618Z,33.30
2022-08-20T14:20:39.596Z,33.31
2022-08-20T14:23:08.980Z,33.49
2022-08-20T14:28:20.998Z,33.30
2022-08-20T14:30:52.567Z,33.34
2022-08-20T14:33:21.534Z,33.42
2022-08-20T14:35:49.406Z,33.34
2022-08-20T14:38:17.816Z,33.41
2022-08-20T14:40:45.781Z,33.36
2022-08-20T14:45:53.605Z,33.50
2022-08-20T14:48:21.486Z,33.46
2022-08-20T14:50:49.311Z,33.39
2022-08-20T14:53:17.151Z,33.41
2022-08-20T14:55:45.034Z,33.38
2022-08-20T14:58:15.057Z,33.48
2022-08-20T15:00:44.349Z,33.43
2022-08-20T15:03:22.841Z,33.47
2022-08-20T15:05:50.906Z,33.41
2022-08-20T15:08:18.762Z,33.38
2022-08-20T15:13:42.354Z,33.03
2022-08-20T15:16:10.170Z,32.90
2022-08-20T15:18:38.057Z,32.87
2022-08-20T15:21:05.912Z,32.80
2022-08-20T15:23:38.346Z,32.64
2022-08-20T15:26:07.110Z,32.73
2022-08-20T15:28:34.975Z,32.56
2022-08-20T15:31:10.495Z,32.41
2022-08-20T15:33:38.610Z,32.33
2022-08-20T15:36:07.929Z,32.16
2022-08-20T15:38:41.241Z,31.91
2022-08-20T15:41:09.084Z,31.79
2022-08-20T15:43:36.956Z,31.59
2022-08-20T15:46:07.754Z,31.39
2022-08-20T15:48:38.037Z,31.34
2022-08-20T15:51:35.292Z,31.07
2022-08-20T15:54:07.061Z,30.92
2022-08-20T15:57:00.811Z,30.80
2022-08-20T15:59:46.261Z,30.68
2022-08-20T16:05:15.669Z,30.49
2022-08-20T16:08:01.598Z,30.36
2022-08-20T16:10:37.670Z,30.29
2022-08-20T16:13:13.305Z,30.28
2022-08-20T16:15:49.307Z,30.18
2022-08-20T16:18:24.405Z,30.14
2022-08-20T16:20:58.796Z,30.08
2022-08-20T16:23:33.633Z,30.04
2022-08-20T16:26:15.061Z,30.02
2022-08-20T16:28:53.438Z,29.96
2022-08-20T16:31:26.204Z,29.93
2022-08-20T16:34:04.642Z,29.88
2022-08-20T16:37:03.071Z,29.78
2022-08-20T16:39:41.737Z,29.73
2022-08-20T16:42:11.662Z,29.64
2022-08-20T16:44:43.316Z,29.62
2022-08-20T16:47:17.211Z,29.58
2022-08-20T16:49:55.080Z,29.54
2022-08-20T16:52:37.956Z,29.53
2022-08-20T16:55:06.381Z,29.46
2022-08-20T16:57:34.174Z,29.37
2022-08-20T17:00:23.867Z,29.32
2022-08-20T17:02:53.913Z,29.28
2022-08-20T17:05:23.003Z,29.21
2022-08-20T17:07:54.803Z,29.16
2022-08-20T17:10:29.041Z,29.12
2022-08-20T17:12:59.770Z,29.05
2022-08-20T17:15:30.914Z,28.99
2022-08-20T17:18:10.665Z,28.94
2022-08-20T17:20:45.893Z,28.86
2022-08-20T17:23:18.982Z,28.77
2022-08-20T17:28:34.535Z,28.59
2022-08-20T17:31:20.938Z,28.54
2022-08-20T17:34:14.479Z,28.46
2022-08-20T17:39:25.054Z,28.37
2022-08-20T17:44:32.730Z,28.26
2022-08-20T17:47:03.146Z,28.21
2022-08-20T17:49:38.305Z,28.16
2022-08-20T17:52:13.857Z,28.10
2022-08-20T17:54:45.517Z,27.99
2022-08-20T17:57:15.743Z,27.93
2022-08-20T18:00:01.089Z,27.87
2022-08-20T18:02:30.964Z,27.78
2022-08-20T18:04:58.790Z,27.74
2022-08-20T18:07:31.956Z,27.67
2022-08-20T18:10:05.026Z,27.58
2022-08-20T18:12:37.861Z,27.49
2022-08-20T18:15:12.643Z,27.36
2022-08-20T18:18:08.432Z,27.30
2022-08-20T18:20:50.274Z,27.22
2022-08-20T18:23:29.638Z,27.11
2022-08-20T18:26:03.314Z,27.06
2022-08-20T18:28:38.401Z,26.97
2022-08-20T18:31:10.416Z,26.87
2022-08-20T18:33:42.000Z,26.80
2022-08-20T18:36:13.720Z,26.72
2022-08-20T18:38:43.508Z,26.63
2022-08-20T18:41:14.697Z,26.53
2022-08-20T18:46:24.531Z,26.39
2022-08-20T18:48:59.059Z,26.32
2022-08-20T18:51:37.594Z,26.25
2022-08-20T18:54:05.935Z,26.15
2022-08-20T18:56:38.697Z,26.05
2022-08-20T18:59:14.410Z,25.97
2022-08-20T19:01:44.679Z,25.88
2022-08-20T19:04:32.602Z,25.77
2022-08-20T19:07:04.972Z,25.69
2022-08-20T19:09:47.582Z,25.58
2022-08-20T19:12:34.422Z,25.52
2022-08-20T19:15:14.002Z,25.43
2022-08-20T19:18:00.775Z,25.33
2022-08-20T19:20:32.344Z,25.29
2022-08-20T19:23:05.839Z,25.24
2022-08-20T19:25:36.551Z,25.15
2022-08-20T19:28:09.417Z,25.04
2022-08-20T19:30:40.171Z,25.00
2022-08-20T19:33:10.653Z,24.96
2022-08-20T19:35:38.890Z,24.89
2022-08-20T19:38:17.645Z,24.82
2022-08-20T19:40:46.183Z,24.75
2022-08-20T19:43:23.542Z,24.69
2022-08-20T19:46:07.499Z,24.64
2022-08-20T19:48:49.325Z,24.57
2022-08-20T19:51:27.689Z,24.48
2022-08-20T19:53:55.854Z,24.40
2022-08-20T19:56:26.475Z,24.35
2022-08-20T19:59:02.899Z,24.29
2022-08-20T20:01:31.768Z,24.22
2022-08-20T20:04:03.729Z,24.15
2022-08-20T20:06:34.872Z,24.11
2022-08-20T20:09:07.494Z,24.04
2022-08-20T20:11:37.675Z,23.97
2022-08-20T20:14:08.690Z,23.92
2022-08-20T20:16:38.329Z,23.87
2022-08-20T20:19:28.093Z,23.81
2022-08-20T20:22:23.717Z,23.75
2022-08-20T20:25:03.783Z,23.69
2022-08-20T20:27:33.060Z,23.64
2022-08-20T20:30:03.950Z,23.59
2022-08-20T20:32:33.872Z,23.56
2022-08-20T20:35:05.540Z,23.52
2022-08-20T20:37:49.202Z,23.48
2022-08-20T20:40:25.395Z,23.42
2022-08-20T20:43:02.902Z,23.35
2022-08-20T20:48:21.263Z,23.25
2022-08-20T20:50:51.103Z,23.21
2022-08-20T20:53:31.446Z,23.17
2022-08-20T20:56:31.540Z,23.11
2022-08-20T20:59:05.333Z,23.06
2022-08-20T21:01:48.767Z,22.97
2022-08-20T21:04:19.641Z,22.87
2022-08-20T21:06:48.031Z,22.79
2022-08-20T21:09:16.641Z,22.68
2022-08-20T21:11:44.550Z,22.63
2022-08-20T21:14:12.386Z,22.55
2022-08-20T21:19:22.003Z,22.38
2022-08-20T21:21:49.815Z,22.33
2022-08-20T21:24:17.654Z,22.27
2022-08-20T21:27:01.544Z,22.21
2022-08-20T21:29:32.629Z,22.13
2022-08-20T21:34:45.587Z,22.11
2022-08-20T21:37:14.317Z,22.08
2022-08-20T21:39:42.650Z,22.04
2022-08-20T21:42:28.694Z,21.99
2022-08-20T21:44:57.837Z,21.93
2022-08-20T21:47:26.533Z,21.87
2022-08-20T21:49:56.325Z,21.84
2022-08-20T21:52:24.124Z,21.77
2022-08-20T21:54:53.249Z,21.66
2022-08-20T21:57:24.460Z,21.57
2022-08-20T21:59:53.109Z,21.50
2022-08-20T22:02:21.793Z,21.43
2022-08-20T22:04:53.876Z,21.37
2022-08-20T22:07:31.201Z,21.32
2022-08-20T22:09:59.134Z,21.30
2022-08-20T22:12:27.705Z,21.31
2022-08-20T22:14:55.658Z,21.29
2022-08-20T22:17:23.847Z,21.24
2022-08-20T22:19:51.755Z,21.22
2022-08-20T22:22:26.028Z,21.14
2022-08-20T22:24:53.947Z,21.06
2022-08-20T22:27:21.779Z,21.01
2022-08-20T22:32:35.137Z,20.89
2022-08-20T22:35:20.256Z,20.86
2022-08-20T22:37:49.464Z,20.81
2022-08-20T22:40:17.376Z,20.78
2022-08-20T22:42:45.355Z,20.75
2022-08-20T22:45:14.885Z,20.71
2022-08-20T22:47:44.290Z,20.64
2022-08-20T22:50:13.950Z,20.61
2022-08-20T22:52:43.493Z,20.60
2022-08-20T22:55:13.149Z,20.60
2022-08-20T22:57:41.206Z,20.58
2022-08-20T23:00:13.599Z,20.59
2022-08-20T23:02:42.762Z,20.59
2022-08-20T23:05:15.266Z,20.54
2022-08-20T23:07:42.960Z,20.51
2022-08-20T23:10:13.438Z,20.46
2022-08-20T23:12:41.722Z,20.41
2022-08-20T23:15:10.563Z,20.34
2022-08-20T23:20:20.929Z,20.19
2022-08-20T23:22:48.728Z,20.13
2022-08-20T23:25:18.128Z,20.09
2022-08-20T23:27:49.450Z,20.04
2022-08-20T23:30:19.219Z,20.02
2022-08-20T23:32:47.257Z,19.98
2022-08-20T23:35:15.588Z,19.90
2022-08-20T23:37:46.171Z,19.84
2022-08-20T23:40:15.737Z,19.75
2022-08-20T23:42:45.328Z,19.70
2022-08-20T23:45:13.976Z,19.67
2022-08-20T23:47:42.042Z,19.65
2022-08-20T23:50:13.065Z,19.59
2022-08-20T23:52:41.192Z,19.56
2022-08-20T23:55:10.185Z,19.47
